sensor_id;sensor_type;location;lat;lon;timestamp;temperature;humidity
80706;DHT22;70229;48.010;7.852;2024-01-30T00:01:29;8.80;99.90
80706;DHT22;70229;48.010;7.852;2024-01-30T00:03:55;8.80;99.90
80706;DHT22;70229;48.010;7.852;2024-01-30T00:06:20;8.70;99.90
80706;DHT22;70229;48.010;7.852;2024-01-30T00:08:46;8.70;99.90
80706;DHT22;70229;48.010;7.852;2024-01-30T00:11:14;8.80;99.90
80706;DHT22;70229;48.010;7.852;2024-01-30T00:13:40;8.70;99.90
80706;DHT22;70229;48.010;7.852;2024-01-30T00:16:06;8.80;99.90
80706;DHT22;70229;48.010;7.852;2024-01-30T00:18:32;8.90;99.90
80706;DHT22;70229;48.010;7.852;2024-01-30T00:20:58;10.00;99.90
80706;DHT22;70229;48.010;7.852;2024-01-30T00:23:23;8.60;99.90
80706;DHT22;70229;48.010;7.852;2024-01-30T00:25:50;9.50;99.90
80706;DHT22;70229;48.010;7.852;2024-01-30T00:28:15;8.60;99.90
80706;DHT22;70229;48.010;7.852;2024-01-30T00:30:41;8.60;99.90
80706;DHT22;70229;48.010;7.852;2024-01-30T00:33:06;10.10;99.90
80706;DHT22;70229;48.010;7.852;2024-01-30T00:35:33;10.00;99.90
80706;DHT22;70229;48.010;7.852;2024-01-30T00:37:58;8.70;99.90
80706;DHT22;70229;48.010;7.852;2024-01-30T00:40:24;9.40;99.90
80706;DHT22;70229;48.010;7.852;2024-01-30T00:42:49;8.90;99.90
80706;DHT22;70229;48.010;7.852;2024-01-30T00:45:16;9.40;99.90
80706;DHT22;70229;48.010;7.852;2024-01-30T00:47:42;8.50;99.90
80706;DHT22;70229;48.010;7.852;2024-01-30T00:50:08;8.50;99.90
80706;DHT22;70229;48.010;7.852;2024-01-30T00:52:33;8.50;99.90
80706;DHT22;70229;48.010;7.852;2024-01-30T00:54:59;8.50;99.90
80706;DHT22;70229;48.010;7.852;2024-01-30T00:57:25;8.50;99.90
80706;DHT22;70229;48.010;7.852;2024-01-30T00:59:51;8.50;99.90
80706;DHT22;70229;48.010;7.852;2024-01-30T01:02:16;8.50;99.90
80706;DHT22;70229;48.010;7.852;2024-01-30T01:04:45;9.10;99.90
80706;DHT22;70229;48.010;7.852;2024-01-30T01:07:11;8.70;99.90
80706;DHT22;70229;48.010;7.852;2024-01-30T01:09:37;8.80;99.90
80706;DHT22;70229;48.010;7.852;2024-01-30T01:12:03;8.90;99.90
80706;DHT22;70229;48.010;7.852;2024-01-30T01:14:29;9.20;99.90
80706;DHT22;70229;48.010;7.852;2024-01-30T01:16:54;10.70;99.90
80706;DHT22;70229;48.010;7.852;2024-01-30T01:19:20;9.20;99.90
80706;DHT22;70229;48.010;7.852;2024-01-30T01:21:45;9.20;99.90
80706;DHT22;70229;48.010;7.852;2024-01-30T01:24:11;10.40;99.90
80706;DHT22;70229;48.010;7.852;2024-01-30T01:26:36;9.20;99.90
80706;DHT22;70229;48.010;7.852;2024-01-30T01:29:02;9.30;99.90
80706;DHT22;70229;48.010;7.852;2024-01-30T01:31:38;9.30;99.90
80706;DHT22;70229;48.010;7.852;2024-01-30T01:34:12;9.20;99.90
80706;DHT22;70229;48.010;7.852;2024-01-30T01:36:39;9.30;99.90
80706;DHT22;70229;48.010;7.852;2024-01-30T01:39:04;9.30;99.90
80706;DHT22;70229;48.010;7.852;2024-01-30T01:41:31;9.30;99.90
80706;DHT22;70229;48.010;7.852;2024-01-30T01:43:57;9.40;99.90
80706;DHT22;70229;48.010;7.852;2024-01-30T01:46:23;9.30;99.90
80706;DHT22;70229;48.010;7.852;2024-01-30T01:48:49;9.30;99.90
80706;DHT22;70229;48.010;7.852;2024-01-30T01:51:15;9.20;99.90
80706;DHT22;70229;48.010;7.852;2024-01-30T01:53:42;9.30;99.90
80706;DHT22;70229;48.010;7.852;2024-01-30T01:56:07;9.10;99.90
80706;DHT22;70229;48.010;7.852;2024-01-30T01:58:33;9.10;99.90
80706;DHT22;70229;48.010;7.852;2024-01-30T02:00:59;9.10;99.90
80706;DHT22;70229;48.010;7.852;2024-01-30T02:03:25;9.90;99.90
80706;DHT22;70229;48.010;7.852;2024-01-30T02:05:51;10.30;99.90
80706;DHT22;70229;48.010;7.852;2024-01-30T02:08:17;9.00;99.90
80706;DHT22;70229;48.010;7.852;2024-01-30T02:10:42;9.10;99.90
80706;DHT22;70229;48.010;7.852;2024-01-30T02:13:08;9.90;99.90
80706;DHT22;70229;48.010;7.852;2024-01-30T02:15:34;9.10;99.90
80706;DHT22;70229;48.010;7.852;2024-01-30T02:17:59;9.10;99.90
80706;DHT22;70229;48.010;7.852;2024-01-30T02:20:25;10.10;99.90
80706;DHT22;70229;48.010;7.852;2024-01-30T02:22:54;9.10;99.90
80706;DHT22;70229;48.010;7.852;2024-01-30T02:25:30;9.10;99.90
80706;DHT22;70229;48.010;7.852;2024-01-30T02:27:56;9.00;99.90
80706;DHT22;70229;48.010;7.852;2024-01-30T02:30:21;8.90;99.90
80706;DHT22;70229;48.010;7.852;2024-01-30T02:32:47;9.60;99.90
80706;DHT22;70229;48.010;7.852;2024-01-30T02:35:13;8.90;99.90
80706;DHT22;70229;48.010;7.852;2024-01-30T02:37:38;9.00;99.90
80706;DHT22;70229;48.010;7.852;2024-01-30T02:40:04;8.90;99.90
80706;DHT22;70229;48.010;7.852;2024-01-30T02:42:30;8.80;99.90
80706;DHT22;70229;48.010;7.852;2024-01-30T02:44:56;8.80;99.90
80706;DHT22;70229;48.010;7.852;2024-01-30T02:47:21;9.10;99.90
80706;DHT22;70229;48.010;7.852;2024-01-30T02:49:47;8.70;99.90
80706;DHT22;70229;48.010;7.852;2024-01-30T02:52:12;8.70;99.90
80706;DHT22;70229;48.010;7.852;2024-01-30T02:54:38;10.10;99.90
80706;DHT22;70229;48.010;7.852;2024-01-30T02:57:03;8.60;99.90
80706;DHT22;70229;48.010;7.852;2024-01-30T02:59:29;8.50;99.90
80706;DHT22;70229;48.010;7.852;2024-01-30T03:01:54;8.60;99.90
80706;DHT22;70229;48.010;7.852;2024-01-30T03:04:20;8.60;99.90
80706;DHT22;70229;48.010;7.852;2024-01-30T03:06:46;8.50;99.90
80706;DHT22;70229;48.010;7.852;2024-01-30T03:09:12;9.40;99.90
80706;DHT22;70229;48.010;7.852;2024-01-30T03:11:38;8.50;99.90
80706;DHT22;70229;48.010;7.852;2024-01-30T03:14:04;8.90;99.90
80706;DHT22;70229;48.010;7.852;2024-01-30T03:16:30;9.00;99.90
80706;DHT22;70229;48.010;7.852;2024-01-30T03:18:55;8.40;99.90
80706;DHT22;70229;48.010;7.852;2024-01-30T03:21:21;9.80;99.90
80706;DHT22;70229;48.010;7.852;2024-01-30T03:23:47;9.70;99.90
80706;DHT22;70229;48.010;7.852;2024-01-30T03:26:12;8.30;99.90
80706;DHT22;70229;48.010;7.852;2024-01-30T03:28:38;9.30;99.90
80706;DHT22;70229;48.010;7.852;2024-01-30T03:31:04;9.30;99.90
80706;DHT22;70229;48.010;7.852;2024-01-30T03:33:29;8.80;99.90
80706;DHT22;70229;48.010;7.852;2024-01-30T03:35:55;8.20;99.90
80706;DHT22;70229;48.010;7.852;2024-01-30T03:38:20;8.40;99.90
80706;DHT22;70229;48.010;7.852;2024-01-30T03:40:46;8.40;99.90
80706;DHT22;70229;48.010;7.852;2024-01-30T03:43:11;8.40;99.90
80706;DHT22;70229;48.010;7.852;2024-01-30T03:45:37;9.70;99.90
80706;DHT22;70229;48.010;7.852;2024-01-30T03:48:03;8.50;99.90
80706;DHT22;70229;48.010;7.852;2024-01-30T03:50:28;8.50;99.90
80706;DHT22;70229;48.010;7.852;2024-01-30T03:52:54;8.60;99.90
80706;DHT22;70229;48.010;7.852;2024-01-30T03:55:20;8.70;99.90
80706;DHT22;70229;48.010;7.852;2024-01-30T03:57:45;9.70;99.90
80706;DHT22;70229;48.010;7.852;2024-01-30T04:00:11;9.90;99.90
80706;DHT22;70229;48.010;7.852;2024-01-30T04:02:37;8.90;99.90
80706;DHT22;70229;48.010;7.852;2024-01-30T04:05:02;8.90;99.90
80706;DHT22;70229;48.010;7.852;2024-01-30T04:07:28;9.00;99.90
80706;DHT22;70229;48.010;7.852;2024-01-30T04:09:54;9.30;99.90
80706;DHT22;70229;48.010;7.852;2024-01-30T04:12:20;9.20;99.90
80706;DHT22;70229;48.010;7.852;2024-01-30T04:14:45;9.30;99.90
80706;DHT22;70229;48.010;7.852;2024-01-30T04:17:11;9.40;99.90
80706;DHT22;70229;48.010;7.852;2024-01-30T04:19:37;10.00;99.90
80706;DHT22;70229;48.010;7.852;2024-01-30T04:22:04;10.40;99.90
80706;DHT22;70229;48.010;7.852;2024-01-30T04:24:29;9.60;99.90
80706;DHT22;70229;48.010;7.852;2024-01-30T04:26:55;9.80;99.90
80706;DHT22;70229;48.010;7.852;2024-01-30T04:29:20;10.40;99.90
80706;DHT22;70229;48.010;7.852;2024-01-30T04:31:47;9.90;99.90
80706;DHT22;70229;48.010;7.852;2024-01-30T04:34:13;11.20;99.90
80706;DHT22;70229;48.010;7.852;2024-01-30T04:36:39;11.00;99.90
80706;DHT22;70229;48.010;7.852;2024-01-30T04:39:04;10.10;99.90
80706;DHT22;70229;48.010;7.852;2024-01-30T04:41:30;10.10;99.90
80706;DHT22;70229;48.010;7.852;2024-01-30T04:43:57;10.10;99.90
80706;DHT22;70229;48.010;7.852;2024-01-30T04:46:22;11.50;99.90
80706;DHT22;70229;48.010;7.852;2024-01-30T04:48:48;10.00;99.90
80706;DHT22;70229;48.010;7.852;2024-01-30T04:51:13;11.30;99.90
80706;DHT22;70229;48.010;7.852;2024-01-30T04:53:39;10.00;99.90
80706;DHT22;70229;48.010;7.852;2024-01-30T04:56:05;10.60;99.90
80706;DHT22;70229;48.010;7.852;2024-01-30T04:58:31;10.10;99.90
80706;DHT22;70229;48.010;7.852;2024-01-30T05:00:56;11.40;99.90
80706;DHT22;70229;48.010;7.852;2024-01-30T05:03:22;9.90;99.90
80706;DHT22;70229;48.010;7.852;2024-01-30T05:05:48;10.10;99.90
80706;DHT22;70229;48.010;7.852;2024-01-30T05:08:14;11.60;99.90
80706;DHT22;70229;48.010;7.852;2024-01-30T05:10:40;10.30;99.90
80706;DHT22;70229;48.010;7.852;2024-01-30T05:13:05;10.20;99.90
80706;DHT22;70229;48.010;7.852;2024-01-30T05:15:31;10.20;99.90
80706;DHT22;70229;48.010;7.852;2024-01-30T05:17:57;10.80;99.90
80706;DHT22;70229;48.010;7.852;2024-01-30T05:20:22;10.10;99.90
80706;DHT22;70229;48.010;7.852;2024-01-30T05:22:48;10.20;99.90
80706;DHT22;70229;48.010;7.852;2024-01-30T05:25:13;10.10;99.90
80706;DHT22;70229;48.010;7.852;2024-01-30T05:27:39;10.30;99.90
80706;DHT22;70229;48.010;7.852;2024-01-30T05:30:06;10.70;99.90
80706;DHT22;70229;48.010;7.852;2024-01-30T05:32:32;10.30;99.90
80706;DHT22;70229;48.010;7.852;2024-01-30T05:34:57;11.10;99.90
80706;DHT22;70229;48.010;7.852;2024-01-30T05:37:23;10.40;99.70
80706;DHT22;70229;48.010;7.852;2024-01-30T05:39:49;11.70;99.90
80706;DHT22;70229;48.010;7.852;2024-01-30T05:42:14;10.40;99.80
80706;DHT22;70229;48.010;7.852;2024-01-30T05:44:42;11.30;99.90
80706;DHT22;70229;48.010;7.852;2024-01-30T05:47:07;10.60;99.90
80706;DHT22;70229;48.010;7.852;2024-01-30T05:49:33;10.30;99.90
80706;DHT22;70229;48.010;7.852;2024-01-30T05:51:58;10.80;99.90
80706;DHT22;70229;48.010;7.852;2024-01-30T05:54:24;10.40;99.70
80706;DHT22;70229;48.010;7.852;2024-01-30T05:56:50;10.50;99.80
80706;DHT22;70229;48.010;7.852;2024-01-30T05:59:15;10.50;99.40
80706;DHT22;70229;48.010;7.852;2024-01-30T06:01:47;10.70;99.30
80706;DHT22;70229;48.010;7.852;2024-01-30T06:04:13;10.70;99.30
80706;DHT22;70229;48.010;7.852;2024-01-30T06:06:39;11.20;99.50
80706;DHT22;70229;48.010;7.852;2024-01-30T06:09:05;11.30;99.70
80706;DHT22;70229;48.010;7.852;2024-01-30T06:11:31;10.60;99.70
80706;DHT22;70229;48.010;7.852;2024-01-30T06:13:56;10.70;99.80
80706;DHT22;70229;48.010;7.852;2024-01-30T06:16:22;10.70;99.90
80706;DHT22;70229;48.010;7.852;2024-01-30T06:18:48;10.60;99.90
80706;DHT22;70229;48.010;7.852;2024-01-30T06:21:14;10.60;99.90
80706;DHT22;70229;48.010;7.852;2024-01-30T06:23:39;11.90;99.90
80706;DHT22;70229;48.010;7.852;2024-01-30T06:26:07;11.10;99.90
80706;DHT22;70229;48.010;7.852;2024-01-30T06:28:32;10.40;99.90
80706;DHT22;70229;48.010;7.852;2024-01-30T06:30:58;10.80;99.90
80706;DHT22;70229;48.010;7.852;2024-01-30T06:33:26;10.60;99.90
80706;DHT22;70229;48.010;7.852;2024-01-30T06:35:51;10.60;99.90
80706;DHT22;70229;48.010;7.852;2024-01-30T06:38:17;10.40;99.90
80706;DHT22;70229;48.010;7.852;2024-01-30T06:40:42;10.40;99.90
80706;DHT22;70229;48.010;7.852;2024-01-30T06:43:08;10.30;99.90
80706;DHT22;70229;48.010;7.852;2024-01-30T06:45:33;10.50;99.90
80706;DHT22;70229;48.010;7.852;2024-01-30T06:48:00;10.40;99.90
80706;DHT22;70229;48.010;7.852;2024-01-30T06:50:26;11.30;99.90
80706;DHT22;70229;48.010;7.852;2024-01-30T06:52:51;10.40;99.90
80706;DHT22;70229;48.010;7.852;2024-01-30T06:55:18;10.90;99.90
80706;DHT22;70229;48.010;7.852;2024-01-30T06:57:43;11.60;99.90
80706;DHT22;70229;48.010;7.852;2024-01-30T07:00:09;12.10;99.90
80706;DHT22;70229;48.010;7.852;2024-01-30T07:02:35;10.60;99.90
80706;DHT22;70229;48.010;7.852;2024-01-30T07:05:01;10.60;99.90
80706;DHT22;70229;48.010;7.852;2024-01-30T07:07:27;10.60;99.90
80706;DHT22;70229;48.010;7.852;2024-01-30T07:09:54;11.00;99.90
80706;DHT22;70229;48.010;7.852;2024-01-30T07:12:22;11.00;99.90
80706;DHT22;70229;48.010;7.852;2024-01-30T07:14:49;11.60;99.90
80706;DHT22;70229;48.010;7.852;2024-01-30T07:17:15;10.70;99.90
80706;DHT22;70229;48.010;7.852;2024-01-30T07:19:41;11.90;99.90
80706;DHT22;70229;48.010;7.852;2024-01-30T07:22:07;10.60;99.90
80706;DHT22;70229;48.010;7.852;2024-01-30T07:24:33;10.60;99.90
80706;DHT22;70229;48.010;7.852;2024-01-30T07:26:59;10.50;99.90
80706;DHT22;70229;48.010;7.852;2024-01-30T07:29:24;10.60;99.90
80706;DHT22;70229;48.010;7.852;2024-01-30T07:31:50;10.70;99.90
80706;DHT22;70229;48.010;7.852;2024-01-30T07:34:15;11.30;99.90
80706;DHT22;70229;48.010;7.852;2024-01-30T07:36:41;10.70;99.90
80706;DHT22;70229;48.010;7.852;2024-01-30T07:39:06;10.60;99.90
80706;DHT22;70229;48.010;7.852;2024-01-30T07:41:32;11.80;99.90
80706;DHT22;70229;48.010;7.852;2024-01-30T07:43:58;10.60;99.90
80706;DHT22;70229;48.010;7.852;2024-01-30T07:46:23;11.50;99.90
80706;DHT22;70229;48.010;7.852;2024-01-30T07:48:49;11.80;99.90
80706;DHT22;70229;48.010;7.852;2024-01-30T07:51:15;10.60;99.90
80706;DHT22;70229;48.010;7.852;2024-01-30T07:53:40;11.70;99.90
80706;DHT22;70229;48.010;7.852;2024-01-30T07:56:07;10.60;99.90
80706;DHT22;70229;48.010;7.852;2024-01-30T07:58:32;10.60;99.90
80706;DHT22;70229;48.010;7.852;2024-01-30T08:00:58;10.60;99.90
80706;DHT22;70229;48.010;7.852;2024-01-30T08:03:25;10.50;99.90
80706;DHT22;70229;48.010;7.852;2024-01-30T08:05:51;11.30;99.90
80706;DHT22;70229;48.010;7.852;2024-01-30T08:08:16;10.50;99.90
80706;DHT22;70229;48.010;7.852;2024-01-30T08:10:42;11.50;99.90
80706;DHT22;70229;48.010;7.852;2024-01-30T08:13:07;10.50;99.90
80706;DHT22;70229;48.010;7.852;2024-01-30T08:15:34;10.80;99.90
80706;DHT22;70229;48.010;7.852;2024-01-30T08:18:00;11.30;99.90
80706;DHT22;70229;48.010;7.852;2024-01-30T08:20:25;10.60;99.90
80706;DHT22;70229;48.010;7.852;2024-01-30T08:22:51;12.10;99.90
80706;DHT22;70229;48.010;7.852;2024-01-30T08:25:17;11.10;99.90
80706;DHT22;70229;48.010;7.852;2024-01-30T08:27:43;10.60;99.90
80706;DHT22;70229;48.010;7.852;2024-01-30T08:30:09;11.80;99.90
80706;DHT22;70229;48.010;7.852;2024-01-30T08:32:34;10.60;99.90
80706;DHT22;70229;48.010;7.852;2024-01-30T08:35:00;12.00;99.90
80706;DHT22;70229;48.010;7.852;2024-01-30T08:37:29;10.70;99.90
80706;DHT22;70229;48.010;7.852;2024-01-30T08:39:55;10.80;99.90
80706;DHT22;70229;48.010;7.852;2024-01-30T08:42:20;11.60;99.90
80706;DHT22;70229;48.010;7.852;2024-01-30T08:44:48;11.50;99.90
80706;DHT22;70229;48.010;7.852;2024-01-30T08:47:15;11.70;99.90
80706;DHT22;70229;48.010;7.852;2024-01-30T08:49:42;11.00;99.90
80706;DHT22;70229;48.010;7.852;2024-01-30T08:52:10;11.00;99.90
80706;DHT22;70229;48.010;7.852;2024-01-30T08:54:35;11.20;99.90
80706;DHT22;70229;48.010;7.852;2024-01-30T08:57:01;11.00;99.90
80706;DHT22;70229;48.010;7.852;2024-01-30T08:59:27;12.40;99.90
80706;DHT22;70229;48.010;7.852;2024-01-30T09:01:53;12.30;99.90
80706;DHT22;70229;48.010;7.852;2024-01-30T09:04:20;11.20;99.90
80706;DHT22;70229;48.010;7.852;2024-01-30T09:06:47;11.90;99.90
80706;DHT22;70229;48.010;7.852;2024-01-30T09:09:13;12.50;99.90
80706;DHT22;70229;48.010;7.852;2024-01-30T09:11:40;12.30;99.90
80706;DHT22;70229;48.010;7.852;2024-01-30T09:14:05;12.60;99.90
80706;DHT22;70229;48.010;7.852;2024-01-30T09:16:31;12.60;99.90
80706;DHT22;70229;48.010;7.852;2024-01-30T09:18:56;11.70;99.90
80706;DHT22;70229;48.010;7.852;2024-01-30T09:21:22;11.40;99.90
80706;DHT22;70229;48.010;7.852;2024-01-30T09:23:48;11.50;99.90
80706;DHT22;70229;48.010;7.852;2024-01-30T09:26:14;11.50;99.90
80706;DHT22;70229;48.010;7.852;2024-01-30T09:28:39;11.50;99.90
80706;DHT22;70229;48.010;7.852;2024-01-30T09:31:11;11.60;99.40
80706;DHT22;70229;48.010;7.852;2024-01-30T09:33:38;11.50;99.80
80706;DHT22;70229;48.010;7.852;2024-01-30T09:36:05;12.10;99.90
80706;DHT22;70229;48.010;7.852;2024-01-30T09:38:30;11.60;99.70
80706;DHT22;70229;48.010;7.852;2024-01-30T09:41:00;12.30;99.90
80706;DHT22;70229;48.010;7.852;2024-01-30T09:43:32;11.70;99.80
80706;DHT22;70229;48.010;7.852;2024-01-30T09:45:59;11.60;99.90
80706;DHT22;70229;48.010;7.852;2024-01-30T09:48:25;11.90;99.90
80706;DHT22;70229;48.010;7.852;2024-01-30T09:50:52;11.60;99.40
80706;DHT22;70229;48.010;7.852;2024-01-30T09:53:19;11.70;99.50
80706;DHT22;70229;48.010;7.852;2024-01-30T09:55:45;11.70;99.40
80706;DHT22;70229;48.010;7.852;2024-01-30T09:58:12;11.70;99.30
80706;DHT22;70229;48.010;7.852;2024-01-30T10:00:38;11.70;99.20
80706;DHT22;70229;48.010;7.852;2024-01-30T10:03:04;11.70;99.10
80706;DHT22;70229;48.010;7.852;2024-01-30T10:05:31;11.80;98.90
80706;DHT22;70229;48.010;7.852;2024-01-30T10:07:59;11.80;99.20
80706;DHT22;70229;48.010;7.852;2024-01-30T10:10:24;11.80;98.80
80706;DHT22;70229;48.010;7.852;2024-01-30T10:12:50;11.90;98.70
80706;DHT22;70229;48.010;7.852;2024-01-30T10:15:17;11.60;98.60
80706;DHT22;70229;48.010;7.852;2024-01-30T10:17:44;11.70;98.40
80706;DHT22;70229;48.010;7.852;2024-01-30T10:20:10;11.80;98.40
80706;DHT22;70229;48.010;7.852;2024-01-30T10:22:36;11.80;98.50
80706;DHT22;70229;48.010;7.852;2024-01-30T10:25:02;13.20;98.60
80706;DHT22;70229;48.010;7.852;2024-01-30T17:39:24;11.00;99.90
80706;DHT22;70229;48.010;7.852;2024-01-30T17:41:50;11.10;99.90
80706;DHT22;70229;48.010;7.852;2024-01-30T17:44:17;11.20;99.90
80706;DHT22;70229;48.010;7.852;2024-01-30T17:46:43;11.00;99.90
80706;DHT22;70229;48.010;7.852;2024-01-30T17:49:09;11.00;99.90
80706;DHT22;70229;48.010;7.852;2024-01-30T17:51:38;11.00;99.90
80706;DHT22;70229;48.010;7.852;2024-01-30T17:54:04;10.90;99.90
80706;DHT22;70229;48.010;7.852;2024-01-30T17:56:30;10.80;99.90
80706;DHT22;70229;48.010;7.852;2024-01-30T17:58:55;10.90;99.90
80706;DHT22;70229;48.010;7.852;2024-01-30T18:01:21;10.90;99.90
80706;DHT22;70229;48.010;7.852;2024-01-30T18:03:46;10.90;99.90
80706;DHT22;70229;48.010;7.852;2024-01-30T18:06:15;10.80;99.90
80706;DHT22;70229;48.010;7.852;2024-01-30T18:08:41;10.80;99.90
80706;DHT22;70229;48.010;7.852;2024-01-30T18:11:06;10.80;99.90
80706;DHT22;70229;48.010;7.852;2024-01-30T18:13:32;10.80;99.90
80706;DHT22;70229;48.010;7.852;2024-01-30T18:15:58;10.80;99.90
80706;DHT22;70229;48.010;7.852;2024-01-30T18:18:24;10.70;99.90
80706;DHT22;70229;48.010;7.852;2024-01-30T18:20:50;10.70;99.90
80706;DHT22;70229;48.010;7.852;2024-01-30T18:23:17;11.20;99.90
80706;DHT22;70229;48.010;7.852;2024-01-30T18:25:43;10.80;99.90
80706;DHT22;70229;48.010;7.852;2024-01-30T18:28:09;10.80;99.90
80706;DHT22;70229;48.010;7.852;2024-01-30T18:30:34;10.70;99.90
80706;DHT22;70229;48.010;7.852;2024-01-30T18:33:00;10.70;99.90
80706;DHT22;70229;48.010;7.852;2024-01-30T18:35:28;10.80;99.90
80706;DHT22;70229;48.010;7.852;2024-01-30T18:37:54;10.80;99.90
80706;DHT22;70229;48.010;7.852;2024-01-30T18:40:19;10.80;99.90
80706;DHT22;70229;48.010;7.852;2024-01-30T18:42:45;10.80;99.90
80706;DHT22;70229;48.010;7.852;2024-01-30T18:45:11;10.80;99.90
80706;DHT22;70229;48.010;7.852;2024-01-30T18:47:36;10.80;99.90
80706;DHT22;70229;48.010;7.852;2024-01-30T18:50:03;10.80;99.90
80706;DHT22;70229;48.010;7.852;2024-01-30T18:52:29;10.70;99.90
80706;DHT22;70229;48.010;7.852;2024-01-30T18:54:55;10.80;99.90
80706;DHT22;70229;48.010;7.852;2024-01-30T18:57:20;10.70;99.90
80706;DHT22;70229;48.010;7.852;2024-01-30T18:59:46;10.70;99.90
80706;DHT22;70229;48.010;7.852;2024-01-30T19:02:11;10.60;99.90
80706;DHT22;70229;48.010;7.852;2024-01-30T19:04:37;10.60;99.90
80706;DHT22;70229;48.010;7.852;2024-01-30T19:07:03;10.60;99.90
80706;DHT22;70229;48.010;7.852;2024-01-30T19:09:28;10.60;99.90
80706;DHT22;70229;48.010;7.852;2024-01-30T19:11:54;10.50;99.90
80706;DHT22;70229;48.010;7.852;2024-01-30T19:14:19;10.40;99.90
80706;DHT22;70229;48.010;7.852;2024-01-30T19:16:45;10.40;99.90
80706;DHT22;70229;48.010;7.852;2024-01-30T19:19:11;10.40;99.90
80706;DHT22;70229;48.010;7.852;2024-01-30T19:21:37;10.40;99.90
80706;DHT22;70229;48.010;7.852;2024-01-30T19:24:02;10.30;99.90
80706;DHT22;70229;48.010;7.852;2024-01-30T19:26:28;10.30;99.90
80706;DHT22;70229;48.010;7.852;2024-01-30T19:28:54;10.30;99.90
80706;DHT22;70229;48.010;7.852;2024-01-30T19:31:19;10.30;99.90
80706;DHT22;70229;48.010;7.852;2024-01-30T19:33:45;10.30;99.90
80706;DHT22;70229;48.010;7.852;2024-01-30T19:36:11;10.10;99.90
80706;DHT22;70229;48.010;7.852;2024-01-30T19:38:36;10.10;99.90
80706;DHT22;70229;48.010;7.852;2024-01-30T19:41:02;10.50;99.90
80706;DHT22;70229;48.010;7.852;2024-01-30T19:43:30;10.10;99.90
80706;DHT22;70229;48.010;7.852;2024-01-30T19:45:55;10.50;99.90
80706;DHT22;70229;48.010;7.852;2024-01-30T19:48:21;10.20;99.90
80706;DHT22;70229;48.010;7.852;2024-01-30T19:50:47;10.30;99.90
80706;DHT22;70229;48.010;7.852;2024-01-30T19:53:12;10.10;99.90
80706;DHT22;70229;48.010;7.852;2024-01-30T19:55:38;10.10;99.90
80706;DHT22;70229;48.010;7.852;2024-01-30T19:58:04;10.10;99.90
80706;DHT22;70229;48.010;7.852;2024-01-30T20:00:30;10.10;99.90
80706;DHT22;70229;48.010;7.852;2024-01-30T20:02:56;10.10;99.90
80706;DHT22;70229;48.010;7.852;2024-01-30T20:05:21;10.10;99.90
80706;DHT22;70229;48.010;7.852;2024-01-30T20:07:48;10.10;99.90
80706;DHT22;70229;48.010;7.852;2024-01-30T20:10:14;10.00;99.90
80706;DHT22;70229;48.010;7.852;2024-01-30T20:12:39;10.00;99.90
80706;DHT22;70229;48.010;7.852;2024-01-30T20:15:07;9.90;99.90
80706;DHT22;70229;48.010;7.852;2024-01-30T20:17:34;9.90;99.90
80706;DHT22;70229;48.010;7.852;2024-01-30T20:20:01;9.90;99.90
80706;DHT22;70229;48.010;7.852;2024-01-30T20:22:26;9.80;99.90
80706;DHT22;70229;48.010;7.852;2024-01-30T20:24:52;10.10;99.90
80706;DHT22;70229;48.010;7.852;2024-01-30T20:27:19;9.90;99.90
80706;DHT22;70229;48.010;7.852;2024-01-30T20:29:45;9.90;99.90
80706;DHT22;70229;48.010;7.852;2024-01-30T20:32:11;9.90;99.90
80706;DHT22;70229;48.010;7.852;2024-01-30T20:34:36;10.00;99.90
80706;DHT22;70229;48.010;7.852;2024-01-30T20:37:02;9.90;99.90
80706;DHT22;70229;48.010;7.852;2024-01-30T20:39:28;9.70;99.90
80706;DHT22;70229;48.010;7.852;2024-01-30T20:41:53;9.70;99.90
80706;DHT22;70229;48.010;7.852;2024-01-30T20:44:19;9.70;99.90
80706;DHT22;70229;48.010;7.852;2024-01-30T20:46:45;9.80;99.90
80706;DHT22;70229;48.010;7.852;2024-01-30T20:49:11;9.70;99.90
80706;DHT22;70229;48.010;7.852;2024-01-30T20:51:37;9.70;99.90
80706;DHT22;70229;48.010;7.852;2024-01-30T20:54:02;9.60;99.90
80706;DHT22;70229;48.010;7.852;2024-01-30T20:56:28;9.50;99.90
80706;DHT22;70229;48.010;7.852;2024-01-30T20:58:53;9.50;99.90
80706;DHT22;70229;48.010;7.852;2024-01-30T21:01:19;9.40;99.90
80706;DHT22;70229;48.010;7.852;2024-01-30T21:03:44;9.40;99.90
80706;DHT22;70229;48.010;7.852;2024-01-30T21:06:12;9.40;99.90
80706;DHT22;70229;48.010;7.852;2024-01-30T21:08:38;9.30;99.90
80706;DHT22;70229;48.010;7.852;2024-01-30T21:11:10;9.20;99.90
80706;DHT22;70229;48.010;7.852;2024-01-30T21:13:36;9.20;99.90
80706;DHT22;70229;48.010;7.852;2024-01-30T21:16:02;9.10;99.90
80706;DHT22;70229;48.010;7.852;2024-01-30T21:18:28;9.00;99.90
80706;DHT22;70229;48.010;7.852;2024-01-30T21:20:53;9.00;99.90
80706;DHT22;70229;48.010;7.852;2024-01-30T21:23:20;9.00;99.90
80706;DHT22;70229;48.010;7.852;2024-01-30T21:25:46;8.80;99.90
80706;DHT22;70229;48.010;7.852;2024-01-30T21:28:11;8.80;99.90
80706;DHT22;70229;48.010;7.852;2024-01-30T21:30:37;8.70;99.90
80706;DHT22;70229;48.010;7.852;2024-01-30T21:33:03;8.70;99.90
80706;DHT22;70229;48.010;7.852;2024-01-30T21:35:29;8.70;99.90
80706;DHT22;70229;48.010;7.852;2024-01-30T21:37:55;8.60;99.90
80706;DHT22;70229;48.010;7.852;2024-01-30T21:40:20;8.60;99.90
80706;DHT22;70229;48.010;7.852;2024-01-30T21:42:46;9.90;99.90
80706;DHT22;70229;48.010;7.852;2024-01-30T21:45:12;8.60;99.90
80706;DHT22;70229;48.010;7.852;2024-01-30T21:47:38;8.60;99.90
80706;DHT22;70229;48.010;7.852;2024-01-30T21:50:04;8.50;99.90
80706;DHT22;70229;48.010;7.852;2024-01-30T21:52:31;8.50;99.90
80706;DHT22;70229;48.010;7.852;2024-01-30T21:54:57;8.50;99.90
80706;DHT22;70229;48.010;7.852;2024-01-30T21:57:22;9.20;99.90
80706;DHT22;70229;48.010;7.852;2024-01-30T21:59:48;8.40;99.90
80706;DHT22;70229;48.010;7.852;2024-01-30T22:02:13;8.40;99.90
80706;DHT22;70229;48.010;7.852;2024-01-30T22:04:39;8.50;99.90
80706;DHT22;70229;48.010;7.852;2024-01-30T22:07:05;8.40;99.90
80706;DHT22;70229;48.010;7.852;2024-01-30T22:09:30;8.50;99.90
80706;DHT22;70229;48.010;7.852;2024-01-30T22:11:56;9.20;99.90
80706;DHT22;70229;48.010;7.852;2024-01-30T22:14:21;8.30;99.90
80706;DHT22;70229;48.010;7.852;2024-01-30T22:16:47;8.40;99.90
80706;DHT22;70229;48.010;7.852;2024-01-30T22:19:12;8.50;99.90
80706;DHT22;70229;48.010;7.852;2024-01-30T22:21:40;8.50;99.90
80706;DHT22;70229;48.010;7.852;2024-01-30T22:24:06;8.50;99.90
80706;DHT22;70229;48.010;7.852;2024-01-30T22:26:41;8.50;99.90
80706;DHT22;70229;48.010;7.852;2024-01-30T22:29:07;8.40;99.90
80706;DHT22;70229;48.010;7.852;2024-01-30T22:31:33;8.50;99.90
80706;DHT22;70229;48.010;7.852;2024-01-30T22:34:02;8.50;99.90
80706;DHT22;70229;48.010;7.852;2024-01-30T22:36:28;8.50;99.90
80706;DHT22;70229;48.010;7.852;2024-01-30T22:38:55;8.50;99.90
80706;DHT22;70229;48.010;7.852;2024-01-30T22:41:24;8.60;99.90